sensor_id;sensor_type;location;lat;lon;timestamp;pressure;altitude;pressure_sealevel;temperature;humidity
68476;BME280;55464;48.266;14.188;2023-06-26T00:00:24;97832.75;;;19.88;58.93
68476;BME280;55464;48.266;14.188;2023-06-26T00:02:49;97838.34;;;19.88;58.90
68476;BME280;55464;48.266;14.188;2023-06-26T00:05:14;97833.91;;;19.91;59.20
68476;BME280;55464;48.266;14.188;2023-06-26T00:07:40;97825.16;;;19.81;59.12
68476;BME280;55464;48.266;14.188;2023-06-26T00:10:05;97834.34;;;19.86;59.39
68476;BME280;55464;48.266;14.188;2023-06-26T00:12:31;97837.94;;;19.82;59.37
68476;BME280;55464;48.266;14.188;2023-06-26T00:14:58;97837.16;;;19.78;59.32
68476;BME280;55464;48.266;14.188;2023-06-26T00:17:23;97833.59;;;19.74;59.24
68476;BME280;55464;48.266;14.188;2023-06-26T00:19:50;97834.75;;;19.80;57.96
68476;BME280;55464;48.266;14.188;2023-06-26T00:22:15;97839.16;;;19.81;58.12
68476;BME280;55464;48.266;14.188;2023-06-26T00:24:41;97825.56;;;19.80;57.90
68476;BME280;55464;48.266;14.188;2023-06-26T00:27:06;97841.50;;;19.94;57.79
68476;BME280;55464;48.266;14.188;2023-06-26T00:29:32;97836.72;;;19.91;57.52
68476;BME280;55464;48.266;14.188;2023-06-26T00:31:57;97843.06;;;19.98;57.37
68476;BME280;55464;48.266;14.188;2023-06-26T00:34:22;97822.72;;;19.91;58.05
68476;BME280;55464;48.266;14.188;2023-06-26T00:36:48;97837.47;;;19.95;58.40
68476;BME280;55464;48.266;14.188;2023-06-26T00:39:13;97839.53;;;19.83;58.93
68476;BME280;55464;48.266;14.188;2023-06-26T00:41:39;97827.56;;;19.72;59.76
68476;BME280;55464;48.266;14.188;2023-06-26T00:44:05;97840.75;;;19.64;59.83
68476;BME280;55464;48.266;14.188;2023-06-26T00:46:31;97839.59;;;19.58;60.35
68476;BME280;55464;48.266;14.188;2023-06-26T00:48:59;97838.78;;;19.58;60.68
68476;BME280;55464;48.266;14.188;2023-06-26T00:51:28;97828.41;;;19.58;59.71
68476;BME280;55464;48.266;14.188;2023-06-26T00:53:54;97845.56;;;19.68;59.28
68476;BME280;55464;48.266;14.188;2023-06-26T00:56:20;97839.16;;;19.71;59.34
68476;BME280;55464;48.266;14.188;2023-06-26T00:58:45;97836.38;;;19.71;60.17
68476;BME280;55464;48.266;14.188;2023-06-26T01:01:11;97834.34;;;19.71;59.97
68476;BME280;55464;48.266;14.188;2023-06-26T01:03:42;97825.19;;;19.67;59.22
68476;BME280;55464;48.266;14.188;2023-06-26T01:06:10;97835.56;;;19.74;59.08
68476;BME280;55464;48.266;14.188;2023-06-26T01:08:38;97834.38;;;19.75;58.96
68476;BME280;55464;48.266;14.188;2023-06-26T01:11:04;97823.19;;;19.75;59.45
68476;BME280;55464;48.266;14.188;2023-06-26T01:13:29;97831.19;;;19.69;60.39
68476;BME280;55464;48.266;14.188;2023-06-26T01:15:57;97818.38;;;19.68;59.96
68476;BME280;55464;48.266;14.188;2023-06-26T01:18:25;97816.00;;;19.67;59.81
68476;BME280;55464;48.266;14.188;2023-06-26T01:20:50;97804.44;;;19.61;59.81
68476;BME280;55464;48.266;14.188;2023-06-26T01:28:41;97812.47;;;19.48;60.95
68476;BME280;55464;48.266;14.188;2023-06-26T01:31:07;97802.09;;;19.38;61.46
68476;BME280;55464;48.266;14.188;2023-06-26T01:33:34;97804.13;;;19.34;61.56
68476;BME280;55464;48.266;14.188;2023-06-26T01:36:01;97807.31;;;19.29;61.73
68476;BME280;55464;48.266;14.188;2023-06-26T01:38:26;97805.38;;;19.07;61.77
68476;BME280;55464;48.266;14.188;2023-06-26T01:40:52;97802.56;;;19.04;62.18
68476;BME280;55464;48.266;14.188;2023-06-26T01:46:06;97801.38;;;18.94;62.54
68476;BME280;55464;48.266;14.188;2023-06-26T01:48:40;97804.56;;;18.93;62.42
68476;BME280;55464;48.266;14.188;2023-06-26T01:51:08;97795.00;;;18.90;62.56
68476;BME280;55464;48.266;14.188;2023-06-26T01:53:38;97791.41;;;18.89;62.27
68476;BME280;55464;48.266;14.188;2023-06-26T01:56:11;97795.00;;;18.94;62.04
68476;BME280;55464;48.266;14.188;2023-06-26T01:58:40;97793.41;;;18.93;61.85
68476;BME280;55464;48.266;14.188;2023-06-26T02:01:08;97799.78;;;18.89;61.70
68476;BME280;55464;48.266;14.188;2023-06-26T02:03:34;97796.19;;;18.85;62.25
68476;BME280;55464;48.266;14.188;2023-06-26T02:06:00;97799.38;;;18.87;62.50
68476;BME280;55464;48.266;14.188;2023-06-26T02:08:25;97794.94;;;18.79;62.63
68476;BME280;55464;48.266;14.188;2023-06-26T02:10:51;97793.78;;;18.80;63.12
68476;BME280;55464;48.266;14.188;2023-06-26T02:13:16;97793.00;;;18.73;63.16
68476;BME280;55464;48.266;14.188;2023-06-26T02:15:41;97799.34;;;18.77;62.98
68476;BME280;55464;48.266;14.188;2023-06-26T02:18:07;97803.34;;;18.79;62.79
68476;BME280;55464;48.266;14.188;2023-06-26T02:20:32;97813.75;;;18.82;62.37
68476;BME280;55464;48.266;14.188;2023-06-26T02:22:58;97804.97;;;18.84;62.25
68476;BME280;55464;48.266;14.188;2023-06-26T02:25:24;97800.16;;;18.74;62.11
68476;BME280;55464;48.266;14.188;2023-06-26T02:27:49;97804.53;;;18.75;62.26
68476;BME280;55464;48.266;14.188;2023-06-26T02:30:15;97806.94;;;18.69;62.58
68476;BME280;55464;48.266;14.188;2023-06-26T02:32:40;97798.56;;;18.65;62.54
68476;BME280;55464;48.266;14.188;2023-06-26T02:35:06;97794.97;;;18.68;62.39
68476;BME280;55464;48.266;14.188;2023-06-26T02:37:31;97806.94;;;18.73;62.38
68476;BME280;55464;48.266;14.188;2023-06-26T02:39:57;97803.72;;;18.67;63.09
68476;BME280;55464;48.266;14.188;2023-06-26T02:42:22;97809.72;;;18.62;63.46
68476;BME280;55464;48.266;14.188;2023-06-26T02:44:47;97817.28;;;18.65;63.18
68476;BME280;55464;48.266;14.188;2023-06-26T02:47:13;97810.91;;;18.57;62.86
68476;BME280;55464;48.266;14.188;2023-06-26T02:49:38;97831.63;;;18.49;63.64
68476;BME280;55464;48.266;14.188;2023-06-26T02:52:04;97823.66;;;18.44;63.97
68476;BME280;55464;48.266;14.188;2023-06-26T02:54:29;97825.63;;;18.36;64.05
68476;BME280;55464;48.266;14.188;2023-06-26T02:56:55;97820.84;;;18.29;64.16
68476;BME280;55464;48.266;14.188;2023-06-26T02:59:20;97820.81;;;18.19;64.53
68476;BME280;55464;48.266;14.188;2023-06-26T03:01:45;97826.78;;;18.21;64.78
68476;BME280;55464;48.266;14.188;2023-06-26T03:04:11;97820.41;;;18.17;64.73
68476;BME280;55464;48.266;14.188;2023-06-26T03:06:36;97829.97;;;18.16;64.67
68476;BME280;55464;48.266;14.188;2023-06-26T03:09:02;97821.19;;;18.13;65.03
68476;BME280;55464;48.266;14.188;2023-06-26T03:11:28;97813.59;;;18.07;65.16
68476;BME280;55464;48.266;14.188;2023-06-26T03:13:53;97822.75;;;18.07;65.33
68476;BME280;55464;48.266;14.188;2023-06-26T03:16:19;97818.78;;;18.05;65.46
68476;BME280;55464;48.266;14.188;2023-06-26T03:18:44;97829.94;;;18.01;65.55
68476;BME280;55464;48.266;14.188;2023-06-26T03:21:10;97839.09;;;18.02;65.28
68476;BME280;55464;48.266;14.188;2023-06-26T03:23:35;97836.28;;;17.98;65.71
68476;BME280;55464;48.266;14.188;2023-06-26T03:26:00;97840.69;;;17.99;65.94
68476;BME280;55464;48.266;14.188;2023-06-26T03:28:26;97835.09;;;17.95;65.83
68476;BME280;55464;48.266;14.188;2023-06-26T03:30:51;97836.25;;;17.94;65.84
68476;BME280;55464;48.266;14.188;2023-06-26T03:33:17;97832.28;;;17.88;65.89
68476;BME280;55464;48.266;14.188;2023-06-26T03:35:42;97843.84;;;17.94;66.01
68476;BME280;55464;48.266;14.188;2023-06-26T03:38:08;97844.63;;;17.94;66.13
68476;BME280;55464;48.266;14.188;2023-06-26T03:40:33;97845.03;;;17.97;66.12
68476;BME280;55464;48.266;14.188;2023-06-26T03:42:58;97841.84;;;17.98;66.20
68476;BME280;55464;48.266;14.188;2023-06-26T03:45:24;97837.88;;;17.99;66.06
68476;BME280;55464;48.266;14.188;2023-06-26T03:47:49;97836.28;;;17.98;66.19
68476;BME280;55464;48.266;14.188;2023-06-26T03:50:18;97838.69;;;18.00;66.53
68476;BME280;55464;48.266;14.188;2023-06-26T03:52:44;97837.06;;;17.99;66.77
68476;BME280;55464;48.266;14.188;2023-06-26T03:55:09;97837.50;;;18.01;66.83
68476;BME280;55464;48.266;14.188;2023-06-26T03:57:34;97830.31;;;18.03;66.41
68476;BME280;55464;48.266;14.188;2023-06-26T04:00:00;97821.16;;;17.95;66.32
68476;BME280;55464;48.266;14.188;2023-06-26T04:02:25;97830.72;;;18.02;66.74
68476;BME280;55464;48.266;14.188;2023-06-26T04:04:51;97840.28;;;18.01;66.53
68476;BME280;55464;48.266;14.188;2023-06-26T04:07:18;97842.25;;;18.00;66.80
68476;BME280;55464;48.266;14.188;2023-06-26T04:09:43;97836.69;;;18.00;66.91
68476;BME280;55464;48.266;14.188;2023-06-26T04:12:09;97843.06;;;18.01;66.66
68476;BME280;55464;48.266;14.188;2023-06-26T04:14:34;97846.25;;;17.99;66.86
68476;BME280;55464;48.266;14.188;2023-06-26T04:17:00;97847.06;;;18.03;67.35
68476;BME280;55464;48.266;14.188;2023-06-26T04:19:28;97846.66;;;18.05;66.67
68476;BME280;55464;48.266;14.188;2023-06-26T04:21:54;97849.84;;;18.03;66.61
68476;BME280;55464;48.266;14.188;2023-06-26T04:24:19;97858.22;;;18.07;66.59
68476;BME280;55464;48.266;14.188;2023-06-26T04:26:44;97844.28;;;18.03;67.05
68476;BME280;55464;48.266;14.188;2023-06-26T04:29:10;97853.88;;;18.09;66.77
68476;BME280;55464;48.266;14.188;2023-06-26T04:31:36;97853.47;;;18.11;65.97
68476;BME280;55464;48.266;14.188;2023-06-26T04:34:01;97858.22;;;18.07;65.63
68476;BME280;55464;48.266;14.188;2023-06-26T04:36:26;97855.81;;;17.98;65.99
68476;BME280;55464;48.266;14.188;2023-06-26T04:38:57;97862.59;;;17.97;65.84
68476;BME280;55464;48.266;14.188;2023-06-26T04:41:22;97855.38;;;17.89;66.39
68476;BME280;55464;48.266;14.188;2023-06-26T04:43:47;97860.97;;;17.96;65.88
68476;BME280;55464;48.266;14.188;2023-06-26T04:46:13;97858.59;;;18.02;66.28
68476;BME280;55464;48.266;14.188;2023-06-26T04:48:38;97862.59;;;17.97;65.81
68476;BME280;55464;48.266;14.188;2023-06-26T04:51:04;97855.81;;;18.02;65.64
68476;BME280;55464;48.266;14.188;2023-06-26T04:53:29;97857.03;;;18.04;65.79
68476;BME280;55464;48.266;14.188;2023-06-26T04:55:54;97864.56;;;18.04;66.06
68476;BME280;55464;48.266;14.188;2023-06-26T04:58:20;97859.00;;;18.04;65.46
68476;BME280;55464;48.266;14.188;2023-06-26T05:00:45;97863.00;;;18.06;65.52
68476;BME280;55464;48.266;14.188;2023-06-26T05:03:12;97860.22;;;18.06;65.73
68476;BME280;55464;48.266;14.188;2023-06-26T05:05:38;97860.63;;;18.12;65.92
68476;BME280;55464;48.266;14.188;2023-06-26T05:08:32;97853.47;;;18.14;66.36
68476;BME280;55464;48.266;14.188;2023-06-26T05:10:58;97852.66;;;18.14;66.64
68476;BME280;55464;48.266;14.188;2023-06-26T05:13:26;97863.84;;;18.21;66.62
68476;BME280;55464;48.266;14.188;2023-06-26T05:15:52;97866.22;;;18.16;66.55
68476;BME280;55464;48.266;14.188;2023-06-26T05:18:18;97859.88;;;18.22;66.55
68476;BME280;55464;48.266;14.188;2023-06-26T05:20:44;97855.47;;;18.21;66.41
68476;BME280;55464;48.266;14.188;2023-06-26T05:23:11;97841.13;;;18.16;66.61
68476;BME280;55464;48.266;14.188;2023-06-26T05:25:37;97844.75;;;18.27;66.84
68476;BME280;55464;48.266;14.188;2023-06-26T05:28:03;97854.31;;;18.33;66.16
68476;BME280;55464;48.266;14.188;2023-06-26T05:30:30;97851.13;;;18.31;66.34
68476;BME280;55464;48.266;14.188;2023-06-26T05:32:59;97855.47;;;18.21;66.77
68476;BME280;55464;48.266;14.188;2023-06-26T05:35:30;97852.28;;;18.23;67.19
68476;BME280;55464;48.266;14.188;2023-06-26T05:37:56;97855.09;;;18.26;67.03
68476;BME280;55464;48.266;14.188;2023-06-26T05:40:22;97848.75;;;18.33;66.79
68476;BME280;55464;48.266;14.188;2023-06-26T05:42:48;97864.31;;;18.38;66.90
68476;BME280;55464;48.266;14.188;2023-06-26T05:45:14;97860.31;;;18.42;66.92
68476;BME280;55464;48.266;14.188;2023-06-26T05:47:39;97855.16;;;18.44;66.79
68476;BME280;55464;48.266;14.188;2023-06-26T05:50:06;97859.94;;;18.51;66.46
68476;BME280;55464;48.266;14.188;2023-06-26T05:52:32;97853.56;;;18.50;66.68
68476;BME280;55464;48.266;14.188;2023-06-26T05:54:58;97859.56;;;18.60;66.82
68476;BME280;55464;48.266;14.188;2023-06-26T05:57:28;97842.41;;;18.58;66.89
68476;BME280;55464;48.266;14.188;2023-06-26T05:59:54;97855.59;;;18.64;66.82
68476;BME280;55464;48.266;14.188;2023-06-26T06:02:20;97852.41;;;18.69;67.26
68476;BME280;55464;48.266;14.188;2023-06-26T06:04:45;97853.59;;;18.76;67.05
68476;BME280;55464;48.266;14.188;2023-06-26T06:07:11;97848.44;;;18.81;66.87
68476;BME280;55464;48.266;14.188;2023-06-26T06:09:36;97864.81;;;18.86;66.53
68476;BME280;55464;48.266;14.188;2023-06-26T06:12:04;97859.63;;;18.88;66.07
68476;BME280;55464;48.266;14.188;2023-06-26T06:14:29;97851.66;;;18.91;66.08
68476;BME280;55464;48.266;14.188;2023-06-26T06:16:55;97858.84;;;18.99;66.10
68476;BME280;55464;48.266;14.188;2023-06-26T06:19:22;97864.00;;;19.00;66.33
68476;BME280;55464;48.266;14.188;2023-06-26T06:21:47;97862.81;;;19.01;66.42
68476;BME280;55464;48.266;14.188;2023-06-26T06:24:12;97852.44;;;19.09;66.43
68476;BME280;55464;48.266;14.188;2023-06-26T06:26:38;97858.84;;;19.13;66.51
68476;BME280;55464;48.266;14.188;2023-06-26T06:29:03;97863.19;;;19.21;65.73
68476;BME280;55464;48.266;14.188;2023-06-26T06:31:29;97864.00;;;19.33;65.35
68476;BME280;55464;48.266;14.188;2023-06-26T06:33:55;97855.63;;;19.33;65.07
68476;BME280;55464;48.266;14.188;2023-06-26T06:36:20;97854.44;;;19.34;65.59
68476;BME280;55464;48.266;14.188;2023-06-26T06:38:45;97850.41;;;19.42;64.57
68476;BME280;55464;48.266;14.188;2023-06-26T06:41:11;97836.44;;;19.42;64.52
68476;BME280;55464;48.266;14.188;2023-06-26T06:43:37;97851.97;;;19.54;63.63
68476;BME280;55464;48.266;14.188;2023-06-26T06:46:03;97846.78;;;19.59;63.65
68476;BME280;55464;48.266;14.188;2023-06-26T06:48:28;97847.97;;;19.65;63.32
68476;BME280;55464;48.266;14.188;2023-06-26T06:50:54;97834.75;;;19.70;62.48
68476;BME280;55464;48.266;14.188;2023-06-26T06:53:20;97837.16;;;19.75;63.17
68476;BME280;55464;48.266;14.188;2023-06-26T06:55:46;97833.56;;;19.78;62.05
68476;BME280;55464;48.266;14.188;2023-06-26T06:58:12;97843.50;;;19.86;61.98
68476;BME280;55464;48.266;14.188;2023-06-26T07:00:37;97850.66;;;19.98;61.32
68476;BME280;55464;48.266;14.188;2023-06-26T07:03:03;97854.66;;;20.00;60.34
68476;BME280;55464;48.266;14.188;2023-06-26T07:05:29;97853.03;;;20.07;61.23
68476;BME280;55464;48.266;14.188;2023-06-26T07:07:54;97850.63;;;20.09;61.38
68476;BME280;55464;48.266;14.188;2023-06-26T07:10:20;97855.81;;;20.10;60.57
68476;BME280;55464;48.266;14.188;2023-06-26T07:12:45;97846.22;;;20.11;60.00
68476;BME280;55464;48.266;14.188;2023-06-26T07:15:10;97842.97;;;20.20;60.19
68476;BME280;55464;48.266;14.188;2023-06-26T07:17:36;97844.13;;;20.30;59.34
68476;BME280;55464;48.266;14.188;2023-06-26T07:20:04;97841.72;;;20.28;60.14
68476;BME280;55464;48.266;14.188;2023-06-26T07:22:32;97839.34;;;20.30;59.77
68476;BME280;55464;48.266;14.188;2023-06-26T07:24:57;97840.88;;;20.38;59.47
68476;BME280;55464;48.266;14.188;2023-06-26T07:27:23;97840.09;;;20.38;59.50
68476;BME280;55464;48.266;14.188;2023-06-26T07:29:48;97840.03;;;20.45;59.52
68476;BME280;55464;48.266;14.188;2023-06-26T07:32:14;97829.59;;;20.49;59.23
68476;BME280;55464;48.266;14.188;2023-06-26T07:34:39;97838.75;;;20.57;58.67
68476;BME280;55464;48.266;14.188;2023-06-26T07:37:05;97839.56;;;20.57;58.89
68476;BME280;55464;48.266;14.188;2023-06-26T07:39:30;97839.94;;;20.63;59.76
68476;BME280;55464;48.266;14.188;2023-06-26T07:41:56;97845.94;;;20.65;59.42
68476;BME280;55464;48.266;14.188;2023-06-26T07:44:24;97852.31;;;20.69;58.69
68476;BME280;55464;48.266;14.188;2023-06-26T07:46:49;97834.75;;;20.62;57.79
68476;BME280;55464;48.266;14.188;2023-06-26T07:49:15;97835.88;;;20.71;58.29
68476;BME280;55464;48.266;14.188;2023-06-26T07:51:40;97839.84;;;20.77;58.01
68476;BME280;55464;48.266;14.188;2023-06-26T07:54:05;97845.84;;;20.80;57.82
68476;BME280;55464;48.266;14.188;2023-06-26T07:56:31;97847.81;;;20.79;58.56
68476;BME280;55464;48.266;14.188;2023-06-26T07:58:57;97848.22;;;20.85;58.41
68476;BME280;55464;48.266;14.188;2023-06-26T08:01:29;97845.75;;;20.90;58.34
68476;BME280;55464;48.266;14.188;2023-06-26T08:03:54;97843.31;;;20.96;57.66
68476;BME280;55464;48.266;14.188;2023-06-26T08:06:20;97844.13;;;20.93;58.63
68476;BME280;55464;48.266;14.188;2023-06-26T08:08:45;97842.47;;;20.99;58.85
68476;BME280;55464;48.266;14.188;2023-06-26T08:11:10;97838.84;;;21.06;57.84
68476;BME280;55464;48.266;14.188;2023-06-26T08:13:36;97840.78;;;21.09;57.83
68476;BME280;55464;48.266;14.188;2023-06-26T08:16:01;97847.59;;;21.11;58.21
68476;BME280;55464;48.266;14.188;2023-06-26T08:18:27;97835.97;;;21.13;57.66
68476;BME280;55464;48.266;14.188;2023-06-26T08:20:52;97837.91;;;21.20;59.40
68476;BME280;55464;48.266;14.188;2023-06-26T08:23:17;97838.66;;;21.24;57.28
68476;BME280;55464;48.266;14.188;2023-06-26T08:25:43;97841.06;;;21.25;56.91
68476;BME280;55464;48.266;14.188;2023-06-26T08:28:08;97834.97;;;21.34;55.98
68476;BME280;55464;48.266;14.188;2023-06-26T08:30:33;97842.09;;;21.39;57.46
68476;BME280;55464;48.266;14.188;2023-06-26T08:32:59;97834.81;;;21.52;56.56
68476;BME280;55464;48.266;14.188;2023-06-26T08:35:24;97828.31;;;21.59;56.93
68476;BME280;55464;48.266;14.188;2023-06-26T08:37:50;97820.75;;;21.56;56.35
68476;BME280;55464;48.266;14.188;2023-06-26T08:40:18;97827.50;;;21.62;56.25
68476;BME280;55464;48.266;14.188;2023-06-26T08:42:46;97830.97;;;21.73;56.13
68476;BME280;55464;48.266;14.188;2023-06-26T08:45:12;97830.94;;;21.77;55.91
68476;BME280;55464;48.266;14.188;2023-06-26T08:47:38;97828.56;;;21.71;55.71
68476;BME280;55464;48.266;14.188;2023-06-26T08:50:08;97826.09;;;21.77;56.10
68476;BME280;55464;48.266;14.188;2023-06-26T08:53:20;97826.88;;;21.81;56.07
68476;BME280;55464;48.266;14.188;2023-06-26T08:55:43;97826.41;;;21.86;58.54
68476;BME280;55464;48.266;14.188;2023-06-26T08:58:09;97824.25;;;21.98;57.31
68476;BME280;55464;48.266;14.188;2023-06-26T09:00:35;97825.72;;;22.09;55.16
68476;BME280;55464;48.266;14.188;2023-06-26T09:03:03;97811.38;;;22.04;56.33
68476;BME280;55464;48.266;14.188;2023-06-26T09:05:29;97805.56;;;22.18;55.94
68476;BME280;55464;48.266;14.188;2023-06-26T09:07:54;97808.69;;;22.24;55.66
68476;BME280;55464;48.266;14.188;2023-06-26T09:10:21;97801.44;;;22.26;56.48
68476;BME280;55464;48.266;14.188;2023-06-26T09:12:47;97806.16;;;22.33;55.73
68476;BME280;55464;48.266;14.188;2023-06-26T09:15:14;97803.19;;;22.44;54.83
68476;BME280;55464;48.266;14.188;2023-06-26T09:17:40;97811.63;;;22.44;56.24
68476;BME280;55464;48.266;14.188;2023-06-26T09:20:07;97810.00;;;22.46;55.52
68476;BME280;55464;48.266;14.188;2023-06-26T09:22:36;97800.63;;;22.57;55.93
68476;BME280;55464;48.266;14.188;2023-06-26T09:25:03;97798.59;;;22.57;54.95
68476;BME280;55464;48.266;14.188;2023-06-26T09:27:29;97800.94;;;22.62;55.23
68476;BME280;55464;48.266;14.188;2023-06-26T09:29:55;97803.56;;;22.73;54.47
68476;BME280;55464;48.266;14.188;2023-06-26T09:32:24;97802.72;;;22.76;52.86
68476;BME280;55464;48.266;14.188;2023-06-26T09:34:52;97791.97;;;22.71;53.96
68476;BME280;55464;48.266;14.188;2023-06-26T09:37:17;97792.31;;;22.73;53.83
68476;BME280;55464;48.266;14.188;2023-06-26T09:39:44;97789.94;;;22.72;54.92
68476;BME280;55464;48.266;14.188;2023-06-26T09:42:09;97790.34;;;22.70;54.35
68476;BME280;55464;48.266;14.188;2023-06-26T09:44:35;97795.13;;;22.73;56.35
68476;BME280;55464;48.266;14.188;2023-06-26T09:47:04;97787.13;;;22.72;54.90
68476;BME280;55464;48.266;14.188;2023-06-26T09:49:29;97793.50;;;22.76;56.65
68476;BME280;55464;48.266;14.188;2023-06-26T09:51:56;97784.59;;;22.81;55.17
68476;BME280;55464;48.266;14.188;2023-06-26T09:54:21;97778.41;;;22.90;56.95
68476;BME280;55464;48.266;14.188;2023-06-26T09:56:49;97779.16;;;22.94;56.49
68476;BME280;55464;48.266;14.188;2023-06-26T09:59:15;97779.50;;;22.96;52.96
68476;BME280;55464;48.266;14.188;2023-06-26T10:01:41;97775.41;;;23.00;53.64
68476;BME280;55464;48.266;14.188;2023-06-26T10:04:07;97763.84;;;22.95;54.06
68476;BME280;55464;48.266;14.188;2023-06-26T10:06:36;97774.97;;;23.06;55.69
68476;BME280;55464;48.266;14.188;2023-06-26T10:09:03;97773.59;;;23.14;55.94
68476;BME280;55464;48.266;14.188;2023-06-26T10:11:39;97765.91;;;23.18;54.90
68476;BME280;55464;48.266;14.188;2023-06-26T10:14:07;97767.97;;;23.14;52.52
68476;BME280;55464;48.266;14.188;2023-06-26T10:16:33;97765.50;;;23.16;51.22
68476;BME280;55464;48.266;14.188;2023-06-26T10:19:02;97765.91;;;23.18;52.73
68476;BME280;55464;48.266;14.188;2023-06-26T10:21:29;97764.59;;;23.22;49.44
68476;BME280;55464;48.266;14.188;2023-06-26T10:23:57;97759.34;;;23.25;50.15
68476;BME280;55464;48.266;14.188;2023-06-26T10:26:24;97767.28;;;23.30;51.29
68476;BME280;55464;48.266;14.188;2023-06-26T10:28:50;97764.84;;;23.32;53.62
68476;BME280;55464;48.266;14.188;2023-06-26T10:31:20;97762.31;;;23.37;51.85
68476;BME280;55464;48.266;14.188;2023-06-26T10:33:48;97744.66;;;23.37;50.71
68476;BME280;55464;48.266;14.188;2023-06-26T10:36:16;97753.59;;;23.52;50.62
68476;BME280;55464;48.266;14.188;2023-06-26T10:38:52;97750.78;;;23.52;50.26
68476;BME280;55464;48.266;14.188;2023-06-26T10:41:21;97743.13;;;23.52;51.57
68476;BME280;55464;48.266;14.188;2023-06-26T10:44:09;97740.25;;;23.76;48.95
68476;BME280;55464;48.266;14.188;2023-06-26T10:46:55;97751.84;;;23.78;51.32
68476;BME280;55464;48.266;14.188;2023-06-26T10:49:27;97738.88;;;23.84;50.44
68476;BME280;55464;48.266;14.188;2023-06-26T10:51:52;97737.59;;;23.89;49.39
68476;BME280;55464;48.266;14.188;2023-06-26T10:54:21;97736.00;;;23.88;49.38
68476;BME280;55464;48.266;14.188;2023-06-26T10:56:50;97725.91;;;23.90;53.05
68476;BME280;55464;48.266;14.188;2023-06-26T10:59:24;97730.22;;;23.95;51.85
68476;BME280;55464;48.266;14.188;2023-06-26T11:02:00;97721.13;;;24.24;49.15
68476;BME280;55464;48.266;14.188;2023-06-26T11:07:22;97722.59;;;24.12;50.53
68476;BME280;55464;48.266;14.188;2023-06-26T11:10:02;97720.59;;;24.12;51.97
68476;BME280;55464;48.266;14.188;2023-06-26T11:12:37;97726.47;;;24.18;53.22
68476;BME280;55464;48.266;14.188;2023-06-26T11:15:07;97723.59;;;24.22;51.81
68476;BME280;55464;48.266;14.188;2023-06-26T11:17:34;97721.19;;;24.20;51.73
68476;BME280;55464;48.266;14.188;2023-06-26T11:20:00;97719.81;;;24.28;50.74
68476;BME280;55464;48.266;14.188;2023-06-26T11:22:26;97713.19;;;24.35;53.82
68476;BME280;55464;48.266;14.188;2023-06-26T11:24:53;97711.88;;;24.40;53.88
68476;BME280;55464;48.266;14.188;2023-06-26T11:27:19;97702.47;;;24.30;52.00
68476;BME280;55464;48.266;14.188;2023-06-26T11:29:48;97702.09;;;24.28;53.01
68476;BME280;55464;48.266;14.188;2023-06-26T11:32:14;97710.94;;;24.46;48.72
68476;BME280;55464;48.266;14.188;2023-06-26T11:34:40;97709.75;;;24.44;47.52
68476;BME280;55464;48.266;14.188;2023-06-26T11:37:08;97701.41;;;24.40;48.98
68476;BME280;55464;48.266;14.188;2023-06-26T11:39:34;97706.44;;;24.49;48.41
68476;BME280;55464;48.266;14.188;2023-06-26T11:42:00;97698.97;;;24.59;48.39
68476;BME280;55464;48.266;14.188;2023-06-26T11:44:30;97702.31;;;24.53;48.95
68476;BME280;55464;48.266;14.188;2023-06-26T11:46:57;97701.94;;;24.51;49.38
68476;BME280;55464;48.266;14.188;2023-06-26T11:49:23;97694.56;;;24.58;47.65
68476;BME280;55464;48.266;14.188;2023-06-26T11:51:50;97696.84;;;24.79;45.61
68476;BME280;55464;48.266;14.188;2023-06-26T11:54:23;97695.25;;;24.78;45.97
68476;BME280;55464;48.266;14.188;2023-06-26T11:56:57;97690.16;;;24.89;46.49
68476;BME280;55464;48.266;14.188;2023-06-26T11:59:24;97689.38;;;25.18;45.73
68476;BME280;55464;48.266;14.188;2023-06-26T12:01:51;97682.84;;;25.21;45.43
68476;BME280;55464;48.266;14.188;2023-06-26T12:04:18;97682.84;;;25.21;45.09
68476;BME280;55464;48.266;14.188;2023-06-26T12:06:49;97687.56;;;25.24;44.60
68476;BME280;55464;48.266;14.188;2023-06-26T12:09:18;97678.75;;;25.22;44.67
68476;BME280;55464;48.266;14.188;2023-06-26T12:11:44;97678.88;;;25.19;44.75
68476;BME280;55464;48.266;14.188;2023-06-26T12:14:14;97674.47;;;25.18;44.30
68476;BME280;55464;48.266;14.188;2023-06-26T12:16:40;97682.31;;;25.26;48.30
68476;BME280;55464;48.266;14.188;2023-06-26T12:19:07;97676.03;;;25.35;50.02
68476;BME280;55464;48.266;14.188;2023-06-26T12:24:13;97669.63;;;25.47;49.67
68476;BME280;55464;48.266;14.188;2023-06-26T12:26:42;97683.31;;;25.62;44.35
68476;BME280;55464;48.266;14.188;2023-06-26T12:29:10;97678.31;;;25.95;42.39
68476;BME280;55464;48.266;14.188;2023-06-26T12:31:50;97664.75;;;26.16;40.56
68476;BME280;55464;48.266;14.188;2023-06-26T12:34:19;97678.31;;;25.95;42.28
68476;BME280;55464;48.266;14.188;2023-06-26T12:36:50;97683.25;;;25.91;43.78
68476;BME280;55464;48.266;14.188;2023-06-26T12:39:19;97668.66;;;25.93;42.55
68476;BME280;55464;48.266;14.188;2023-06-26T12:41:57;97663.72;;;25.97;43.59
68476;BME280;55464;48.266;14.188;2023-06-26T12:44:30;97676.47;;;26.27;41.10
68476;BME280;55464;48.266;14.188;2023-06-26T12:47:01;97669.72;;;26.12;42.16
68476;BME280;55464;48.266;14.188;2023-06-26T12:52:05;97667.09;;;26.30;41.35
68476;BME280;55464;48.266;14.188;2023-06-26T12:54:31;97658.19;;;26.19;44.92
68476;BME280;55464;48.266;14.188;2023-06-26T12:56:57;97659.22;;;26.12;44.74
68476;BME280;55464;48.266;14.188;2023-06-26T12:59:22;97659.09;;;26.29;41.44
68476;BME280;55464;48.266;14.188;2023-06-26T13:01:48;97649.72;;;26.32;42.12
68476;BME280;55464;48.266;14.188;2023-06-26T13:04:14;97643.59;;;26.20;41.74